Time;durP1;ratioP1;P1;durP2;ratioP2;P2;SDS_P1;SDS_P2;PMS_P1;PMS_P2;Temp;Humidity;BMP_temperature;BMP_pressure;BME280_temperature;BME280_humidity;BME280_pressure;Samples;Min_cycle;Max_cycle;Signal;HPM_P1;HPM_P2
2021/08/30 00:02:01;;;;;;;15.55;7.50;;;;;;;;;;5055163;28;20729;-82
2021/08/30 00:04:26;;;;;;;19.13;7.80;;;;;;;;;;5055299;28;20032;-82
2021/08/30 00:06:51;;;;;;;18.55;8.48;;;;;;;;;;5056163;28;20028;-82
2021/08/30 00:09:17;;;;;;;14.48;7.60;;;;;;;;;;5056047;28;20021;-82
2021/08/30 00:11:42;;;;;;;16.02;8.05;;;;;;;;;;5056080;28;20479;-81
2021/08/30 00:14:07;;;;;;;19.00;7.35;;;;;;;;;;5054868;28;20063;-82
2021/08/30 00:16:32;;;;;;;12.15;6.28;;;;;;;;;;5053866;28;20025;-82
2021/08/30 00:18:58;;;;;;;15.43;7.00;;;;;;;;;;5053244;28;20021;-82
2021/08/30 00:21:23;;;;;;;15.70;7.53;;;;;;;;;;5054881;28;20021;-82
2021/08/30 00:23:48;;;;;;;15.25;7.35;;;;;;;;;;5053586;28;20464;-82
2021/08/30 00:26:14;;;;;;;12.32;6.43;;;;;;;;;;5053154;28;20407;-81
2021/08/30 00:28:40;;;;;;;17.30;8.10;;;;;;;;;;5054274;28;20495;-82
2021/08/30 00:31:05;;;;;;;19.35;7.65;;;;;;;;;;5054047;28;20033;-82
2021/08/30 00:33:31;;;;;;;18.00;7.35;;;;;;;;;;5055895;28;20036;-82
2021/08/30 00:35:56;;;;;;;16.02;7.47;;;;;;;;;;5054583;28;20028;-81
2021/08/30 00:38:21;;;;;;;15.20;7.13;;;;;;;;;;5055296;28;20013;-82
2021/08/30 00:40:46;;;;;;;12.68;7.03;;;;;;;;;;5055754;28;20025;-82
2021/08/30 00:43:11;;;;;;;14.68;7.40;;;;;;;;;;5055826;28;20025;-82
2021/08/30 00:45:37;;;;;;;12.57;7.05;;;;;;;;;;5054436;28;20432;-82
2021/08/30 00:48:03;;;;;;;14.13;7.10;;;;;;;;;;5053744;28;20104;-82
2021/08/30 00:50:28;;;;;;;22.88;8.80;;;;;;;;;;5055575;28;20059;-81
2021/08/30 00:52:53;;;;;;;14.85;6.65;;;;;;;;;;5055220;28;20048;-82
2021/08/30 00:55:19;;;;;;;16.15;7.90;;;;;;;;;;5054120;28;20021;-81
2021/08/30 00:57:44;;;;;;;21.13;7.65;;;;;;;;;;5054457;28;20073;-82
2021/08/30 01:00:10;;;;;;;15.02;7.05;;;;;;;;;;5053934;28;20017;-82
2021/08/30 01:02:35;;;;;;;16.52;7.88;;;;;;;;;;5053925;28;20017;-82
2021/08/30 01:05:01;;;;;;;14.30;7.25;;;;;;;;;;5054789;28;20557;-82
2021/08/30 01:07:39;;;;;;;12.73;7.40;;;;;;;;;;5054036;28;20028;-82
2021/08/30 01:10:05;;;;;;;20.70;8.55;;;;;;;;;;5054870;28;20048;-82
2021/08/30 01:12:31;;;;;;;12.77;6.80;;;;;;;;;;5053790;28;20025;-82
2021/08/30 01:15:05;;;;;;;15.65;7.25;;;;;;;;;;5055179;28;20614;-82
2021/08/30 01:17:40;;;;;;;16.70;8.13;;;;;;;;;;5053387;28;20025;-81
2021/08/30 01:20:11;;;;;;;19.42;7.68;;;;;;;;;;5052932;28;20094;-82
2021/08/30 01:22:38;;;;;;;14.82;7.97;;;;;;;;;;5055060;28;20025;-82
2021/08/30 01:25:05;;;;;;;20.08;8.25;;;;;;;;;;5053443;28;20028;-82
2021/08/30 01:27:30;;;;;;;14.32;7.22;;;;;;;;;;5053420;28;20036;-81
2021/08/30 01:30:00;;;;;;;13.77;6.82;;;;;;;;;;5053685;28;20017;-82
2021/08/30 01:32:25;;;;;;;15.32;7.32;;;;;;;;;;5052895;28;20021;-82
2021/08/30 01:34:50;;;;;;;23.30;7.93;;;;;;;;;;5053416;28;20538;-82
2021/08/30 01:37:15;;;;;;;20.52;7.85;;;;;;;;;;5055207;28;20096;-82
2021/08/30 01:39:41;;;;;;;16.13;8.07;;;;;;;;;;5053204;28;20074;-82
2021/08/30 01:42:07;;;;;;;19.67;8.35;;;;;;;;;;5053387;28;20051;-82
2021/08/30 01:44:32;;;;;;;15.63;7.45;;;;;;;;;;5054658;28;20028;-81
2021/08/30 01:46:57;;;;;;;13.95;7.78;;;;;;;;;;5053394;28;20086;-82
2021/08/30 01:49:24;;;;;;;18.63;8.00;;;;;;;;;;5053110;28;20040;-82
2021/08/30 01:51:50;;;;;;;19.90;8.48;;;;;;;;;;5054045;28;20071;-82
2021/08/30 01:54:15;;;;;;;13.93;7.68;;;;;;;;;;5053179;28;20017;-82
2021/08/30 01:56:46;;;;;;;13.05;7.05;;;;;;;;;;5053022;28;20379;-82
2021/08/30 02:01:56;;;;;;;16.52;7.82;;;;;;;;;;5054406;28;20389;-82
2021/08/30 02:04:21;;;;;;;16.10;8.25;;;;;;;;;;5054432;28;20025;-81
2021/08/30 02:06:46;;;;;;;14.82;7.50;;;;;;;;;;5052906;28;20036;-81
2021/08/30 02:09:11;;;;;;;19.30;8.48;;;;;;;;;;5052831;28;20134;-82
2021/08/30 02:11:38;;;;;;;18.08;7.53;;;;;;;;;;5053224;28;20021;-82
2021/08/30 02:14:04;;;;;;;15.43;7.68;;;;;;;;;;5052498;28;20103;-82
2021/08/30 02:16:29;;;;;;;16.40;8.70;;;;;;;;;;5052225;28;20125;-82
2021/08/30 02:19:00;;;;;;;15.82;8.02;;;;;;;;;;5052384;28;20021;-82
2021/08/30 02:21:29;;;;;;;16.73;7.65;;;;;;;;;;5052328;28;20465;-82
2021/08/30 02:24:13;;;;;;;14.52;6.78;;;;;;;;;;5053629;28;20040;-82
2021/08/30 02:26:53;;;;;;;14.27;7.13;;;;;;;;;;5052455;28;20017;-82
2021/08/30 02:29:20;;;;;;;16.05;7.55;;;;;;;;;;5052388;28;20526;-82
2021/08/30 02:31:47;;;;;;;14.60;7.13;;;;;;;;;;5052278;28;20013;-82
2021/08/30 02:34:13;;;;;;;14.05;7.55;;;;;;;;;;5053161;28;20029;-82
2021/08/30 02:36:39;;;;;;;16.15;6.72;;;;;;;;;;5052173;28;20024;-82
2021/08/30 02:39:04;;;;;;;23.38;7.28;;;;;;;;;;5053419;28;20473;-82
2021/08/30 02:41:30;;;;;;;15.93;7.70;;;;;;;;;;5052230;28;20013;-83
2021/08/30 02:43:56;;;;;;;18.42;7.13;;;;;;;;;;5052158;28;20021;-82
2021/08/30 02:46:21;;;;;;;14.75;7.45;;;;;;;;;;5067932;28;20024;-82
2021/08/30 02:48:47;;;;;;;18.92;8.02;;;;;;;;;;5072101;28;20032;-82
2021/08/30 02:51:12;;;;;;;13.80;7.40;;;;;;;;;;5073204;28;20025;-82
2021/08/30 02:53:38;;;;;;;14.65;6.97;;;;;;;;;;5071836;28;20017;-82
2021/08/30 02:56:04;;;;;;;14.13;7.35;;;;;;;;;;5071582;28;20672;-82
2021/08/30 02:58:29;;;;;;;14.80;7.90;;;;;;;;;;5072030;28;20514;-82
2021/08/30 03:00:55;;;;;;;15.30;7.68;;;;;;;;;;5068837;28;20028;-82
2021/08/30 03:03:20;;;;;;;19.38;7.68;;;;;;;;;;5069696;28;20031;-82
2021/08/30 03:05:47;;;;;;;11.75;6.45;;;;;;;;;;5070296;28;20078;-82
2021/08/30 03:08:12;;;;;;;15.48;6.93;;;;;;;;;;5071473;28;20027;-82
2021/08/30 03:10:38;;;;;;;18.65;6.88;;;;;;;;;;5071839;28;20107;-82
2021/08/30 03:13:04;;;;;;;15.20;7.50;;;;;;;;;;5071137;28;20059;-82
2021/08/30 03:15:30;;;;;;;15.55;7.75;;;;;;;;;;5071072;28;20055;-82
2021/08/30 03:17:56;;;;;;;16.17;7.53;;;;;;;;;;5070146;28;20048;-82
2021/08/30 03:20:23;;;;;;;15.80;7.20;;;;;;;;;;5070153;28;20016;-82
2021/08/30 03:22:49;;;;;;;15.55;7.03;;;;;;;;;;5069232;28;20020;-82
2021/08/30 03:25:16;;;;;;;14.63;7.75;;;;;;;;;;5069522;28;20058;-82
2021/08/30 03:27:46;;;;;;;16.45;8.02;;;;;;;;;;5070080;28;20032;-82
2021/08/30 03:30:12;;;;;;;15.02;7.22;;;;;;;;;;5071336;28;20021;-82
2021/08/30 03:32:38;;;;;;;15.20;8.15;;;;;;;;;;5060755;28;20464;-82
2021/08/30 03:35:03;;;;;;;18.85;8.23;;;;;;;;;;5071479;28;20017;-82
2021/08/30 03:37:29;;;;;;;15.13;7.28;;;;;;;;;;5071455;28;20020;-82
2021/08/30 03:39:55;;;;;;;20.13;7.22;;;;;;;;;;5065304;28;20017;-82
2021/08/30 03:42:20;;;;;;;13.95;7.30;;;;;;;;;;5069576;28;20025;-82
2021/08/30 03:44:45;;;;;;;14.40;6.90;;;;;;;;;;5072611;28;20032;-82
2021/08/30 03:47:11;;;;;;;12.90;6.45;;;;;;;;;;5071209;28;20028;-82
2021/08/30 03:49:36;;;;;;;14.23;7.60;;;;;;;;;;5068407;28;20059;-82
2021/08/30 03:52:02;;;;;;;19.13;8.05;;;;;;;;;;5065220;28;20028;-82
2021/08/30 03:54:27;;;;;;;14.75;7.30;;;;;;;;;;5071161;28;20143;-82
2021/08/30 03:56:53;;;;;;;18.90;8.88;;;;;;;;;;5072778;28;20066;-82
2021/08/30 03:59:19;;;;;;;17.80;7.25;;;;;;;;;;5071128;28;20031;-82
2021/08/30 04:01:50;;;;;;;16.80;7.85;;;;;;;;;;5071436;28;20111;-82
2021/08/30 04:04:20;;;;;;;16.50;7.85;;;;;;;;;;5069685;28;20025;-82
2021/08/30 04:06:45;;;;;;;15.32;7.50;;;;;;;;;;5060783;28;20016;-82
2021/08/30 04:09:14;;;;;;;17.25;8.35;;;;;;;;;;5072428;28;20380;-82
2021/08/30 04:11:39;;;;;;;13.25;7.70;;;;;;;;;;5071220;28;20025;-82
2021/08/30 04:14:05;;;;;;;16.73;8.57;;;;;;;;;;5072471;28;20601;-82
2021/08/30 04:16:30;;;;;;;14.73;7.97;;;;;;;;;;5071183;28;20057;-82
2021/08/30 04:18:57;;;;;;;14.32;7.82;;;;;;;;;;5071351;28;20024;-82
2021/08/30 04:21:22;;;;;;;14.18;7.55;;;;;;;;;;5070754;28;20039;-82
2021/08/30 04:23:47;;;;;;;12.30;7.22;;;;;;;;;;5071161;28;20017;-82
2021/08/30 04:26:12;;;;;;;15.63;7.60;;;;;;;;;;5065860;28;20033;-82
2021/08/30 04:28:38;;;;;;;19.00;8.00;;;;;;;;;;5070953;28;20016;-82
2021/08/30 04:31:03;;;;;;;12.82;6.50;;;;;;;;;;5071021;28;20070;-82
2021/08/30 04:33:28;;;;;;;21.55;9.00;;;;;;;;;;5071520;28;20044;-82
2021/08/30 04:35:53;;;;;;;15.23;7.40;;;;;;;;;;5074732;28;20076;-82
2021/08/30 04:38:18;;;;;;;14.20;7.72;;;;;;;;;;5058508;28;20027;-82
2021/08/30 04:40:44;;;;;;;12.27;6.68;;;;;;;;;;5063404;28;20017;-82
2021/08/30 04:43:11;;;;;;;15.25;7.25;;;;;;;;;;5074290;28;20025;-82
2021/08/30 04:45:37;;;;;;;14.75;7.40;;;;;;;;;;5074002;28;20052;-82
2021/08/30 04:48:02;;;;;;;18.05;7.85;;;;;;;;;;5074146;28;20467;-82
2021/08/30 04:50:27;;;;;;;16.60;7.07;;;;;;;;;;5065298;28;20031;-82
2021/08/30 04:52:52;;;;;;;15.48;7.50;;;;;;;;;;5074451;28;20029;-82
2021/08/30 04:55:18;;;;;;;18.10;7.03;;;;;;;;;;5075445;28;20023;-82
2021/08/30 04:57:43;;;;;;;18.20;7.68;;;;;;;;;;5074149;28;20021;-82
2021/08/30 05:00:09;;;;;;;14.13;6.95;;;;;;;;;;5075581;28;20060;-82
2021/08/30 05:02:34;;;;;;;17.23;8.15;;;;;;;;;;5075224;28;20024;-82
2021/08/30 05:04:59;;;;;;;16.42;8.13;;;;;;;;;;5075350;28;20091;-82
2021/08/30 05:07:25;;;;;;;19.73;8.02;;;;;;;;;;5073819;28;20031;-82
2021/08/30 05:09:50;;;;;;;15.40;7.07;;;;;;;;;;5073090;28;20476;-82
2021/08/30 05:12:15;;;;;;;14.43;7.32;;;;;;;;;;5075520;28;20063;-82
2021/08/30 05:14:40;;;;;;;14.35;7.55;;;;;;;;;;5073585;28;20118;-82
2021/08/30 05:17:06;;;;;;;13.18;7.13;;;;;;;;;;5073927;28;20025;-82
2021/08/30 05:19:31;;;;;;;18.05;7.60;;;;;;;;;;5074949;28;20074;-82
2021/08/30 05:21:56;;;;;;;14.88;7.32;;;;;;;;;;5074053;28;20028;-82
2021/08/30 05:24:21;;;;;;;15.30;7.15;;;;;;;;;;5073828;28;20020;-82
2021/08/30 05:26:46;;;;;;;16.73;7.70;;;;;;;;;;5075080;28;20016;-82
2021/08/30 05:29:12;;;;;;;15.60;7.40;;;;;;;;;;5073676;28;20111;-82
2021/08/30 05:31:37;;;;;;;17.48;7.07;;;;;;;;;;5074679;28;20819;-82
2021/08/30 05:34:02;;;;;;;15.68;7.15;;;;;;;;;;5064816;28;20104;-82
2021/08/30 05:36:28;;;;;;;13.98;7.35;;;;;;;;;;5068041;28;20058;-82
2021/08/30 05:38:53;;;;;;;15.95;7.35;;;;;;;;;;5074739;28;20016;-82
2021/08/30 05:41:19;;;;;;;18.35;8.23;;;;;;;;;;5073682;28;20025;-82
2021/08/30 05:43:44;;;;;;;17.75;8.38;;;;;;;;;;5073392;28;20375;-82
2021/08/30 05:46:12;;;;;;;16.38;7.20;;;;;;;;;;5072361;28;20021;-82
2021/08/30 05:48:37;;;;;;;15.80;7.20;;;;;;;;;;5074508;28;20032;-82
2021/08/30 05:51:03;;;;;;;18.15;8.07;;;;;;;;;;5057796;28;20476;-82
2021/08/30 05:53:28;;;;;;;22.65;8.77;;;;;;;;;;5064859;28;20032;-82
2021/08/30 05:55:53;;;;;;;18.77;8.32;;;;;;;;;;5057244;28;20036;-82
2021/08/30 05:58:21;;;;;;;16.08;7.07;;;;;;;;;;5060129;28;20021;-82
2021/08/30 06:00:46;;;;;;;12.80;6.57;;;;;;;;;;5054802;28;20021;-81
2021/08/30 06:03:11;;;;;;;16.13;7.85;;;;;;;;;;5071494;28;20585;-82
2021/08/30 06:05:36;;;;;;;19.83;7.78;;;;;;;;;;5070360;28;20030;-82
2021/08/30 06:08:02;;;;;;;15.57;8.07;;;;;;;;;;5057588;28;20017;-81
2021/08/30 06:10:27;;;;;;;14.93;7.45;;;;;;;;;;5069131;28;20090;-82
2021/08/30 06:12:52;;;;;;;17.58;7.97;;;;;;;;;;5060814;28;20067;-82
2021/08/30 06:15:18;;;;;;;16.08;8.23;;;;;;;;;;5065503;28;20124;-82
2021/08/30 06:17:43;;;;;;;18.55;8.60;;;;;;;;;;5066793;28;20428;-82
2021/08/30 06:20:08;;;;;;;19.52;9.27;;;;;;;;;;5069232;28;20019;-82
2021/08/30 06:22:34;;;;;;;22.23;8.40;;;;;;;;;;5057636;28;20535;-82
2021/08/30 06:24:59;;;;;;;18.92;8.68;;;;;;;;;;5070312;28;20012;-82
2021/08/30 06:27:24;;;;;;;17.23;7.78;;;;;;;;;;5072456;28;20030;-82
2021/08/30 06:29:49;;;;;;;16.23;7.80;;;;;;;;;;5072212;28;20029;-82
2021/08/30 06:32:15;;;;;;;17.30;7.95;;;;;;;;;;5073552;28;20024;-82
2021/08/30 06:34:40;;;;;;;17.73;7.80;;;;;;;;;;5066016;28;20029;-82
2021/08/30 06:37:05;;;;;;;17.40;8.32;;;;;;;;;;5068810;28;20060;-83
2021/08/30 06:39:30;;;;;;;22.17;8.45;;;;;;;;;;5053098;28;20028;-82
2021/08/30 06:41:56;;;;;;;22.35;9.10;;;;;;;;;;5069723;28;20445;-82
2021/08/30 06:44:21;;;;;;;20.65;8.20;;;;;;;;;;5073597;28;20525;-82
2021/08/30 06:46:46;;;;;;;18.60;7.85;;;;;;;;;;5072175;28;20059;-82
2021/08/30 06:49:11;;;;;;;14.48;7.85;;;;;;;;;;5064972;28;20029;-82
2021/08/30 06:51:37;;;;;;;20.67;8.63;;;;;;;;;;5051179;28;20063;-82
2021/08/30 06:54:02;;;;;;;20.98;10.43;;;;;;;;;;5060105;28;20548;-82
2021/08/30 06:56:27;;;;;;;23.20;9.73;;;;;;;;;;5072903;28;20044;-82
2021/08/30 06:58:52;;;;;;;18.02;8.70;;;;;;;;;;5069286;28;20100;-82
2021/08/30 07:01:17;;;;;;;21.00;9.82;;;;;;;;;;5073420;28;20020;-82
2021/08/30 07:03:43;;;;;;;21.58;10.30;;;;;;;;;;5065063;28;20032;-82
2021/08/30 07:06:08;;;;;;;22.48;10.20;;;;;;;;;;5069763;28;20027;-82
2021/08/30 07:08:33;;;;;;;20.02;10.15;;;;;;;;;;5071984;28;20028;-82
2021/08/30 07:10:58;;;;;;;20.38;9.55;;;;;;;;;;5067114;28;20461;-82
2021/08/30 07:13:24;;;;;;;21.60;9.48;;;;;;;;;;5055813;28;20063;-82
2021/08/30 07:15:49;;;;;;;21.00;10.48;;;;;;;;;;5064359;28;20028;-82
2021/08/30 07:18:15;;;;;;;22.10;9.18;;;;;;;;;;5071311;28;20016;-82
2021/08/30 07:20:40;;;;;;;23.92;10.20;;;;;;;;;;5071772;28;20029;-82
2021/08/30 07:23:05;;;;;;;24.05;10.57;;;;;;;;;;5071622;28;20472;-82
2021/08/30 07:25:30;;;;;;;26.55;12.00;;;;;;;;;;5071695;28;20051;-82
2021/08/30 07:27:56;;;;;;;20.88;10.05;;;;;;;;;;5054697;28;20457;-82
2021/08/30 07:30:21;;;;;;;24.83;10.60;;;;;;;;;;5071830;28;20456;-82
2021/08/30 07:32:46;;;;;;;34.15;11.95;;;;;;;;;;5055253;28;20637;-82
2021/08/30 07:35:13;;;;;;;29.05;11.77;;;;;;;;;;5052732;28;20020;-82
2021/08/30 07:37:38;;;;;;;29.85;11.82;;;;;;;;;;5061866;28;20023;-82
2021/08/30 07:40:03;;;;;;;25.25;11.10;;;;;;;;;;5071510;28;20016;-82
2021/08/30 07:42:29;;;;;;;22.85;10.63;;;;;;;;;;5071742;28;20047;-82
2021/08/30 07:44:54;;;;;;;27.63;12.15;;;;;;;;;;5066767;28;20059;-82
2021/08/30 07:47:19;;;;;;;27.77;12.10;;;;;;;;;;5050066;28;20109;-82
2021/08/30 07:49:44;;;;;;;24.25;13.02;;;;;;;;;;5071591;28;20025;-82
2021/08/30 07:52:09;;;;;;;28.40;12.68;;;;;;;;;;5070491;28;20043;-82
2021/08/30 07:54:35;;;;;;;23.88;11.55;;;;;;;;;;5072618;28;20039;-82
2021/08/30 07:57:00;;;;;;;32.50;12.27;;;;;;;;;;5059913;28;20018;-82
2021/08/30 07:59:25;;;;;;;33.35;13.95;;;;;;;;;;5070409;28;20016;-82
2021/08/30 08:01:50;;;;;;;29.70;13.60;;;;;;;;;;5070523;28;20055;-82
2021/08/30 08:04:16;;;;;;;36.38;12.55;;;;;;;;;;5057470;28;20032;-82
2021/08/30 08:06:42;;;;;;;28.52;13.25;;;;;;;;;;5071789;28;20082;-83
2021/08/30 08:09:07;;;;;;;31.08;12.68;;;;;;;;;;5055514;28;20050;-83
2021/08/30 08:11:32;;;;;;;32.15;14.13;;;;;;;;;;5060011;28;20032;-83
2021/08/30 08:13:57;;;;;;;31.45;13.30;;;;;;;;;;5056414;28;20046;-82
2021/08/30 08:16:23;;;;;;;37.22;13.63;;;;;;;;;;5072315;28;20017;-82
2021/08/30 08:18:48;;;;;;;28.13;12.75;;;;;;;;;;5075212;28;20116;-81
2021/08/30 08:21:13;;;;;;;25.63;12.95;;;;;;;;;;5074863;28;20028;-81
2021/08/30 08:23:38;;;;;;;30.90;13.05;;;;;;;;;;5076296;28;20032;-81
2021/08/30 08:26:04;;;;;;;26.15;13.27;;;;;;;;;;5072433;28;20032;-80
2021/08/30 08:28:29;;;;;;;36.10;13.93;;;;;;;;;;5074685;28;20040;-80
2021/08/30 08:30:54;;;;;;;30.45;15.05;;;;;;;;;;5074814;28;20029;-80
2021/08/30 08:33:19;;;;;;;31.75;13.27;;;;;;;;;;5071231;28;20384;-80
2021/08/30 08:35:45;;;;;;;29.67;13.18;;;;;;;;;;5068524;28;20464;-80
2021/08/30 08:38:10;;;;;;;34.90;14.88;;;;;;;;;;5071869;28;20021;-80
2021/08/30 08:40:36;;;;;;;22.40;10.98;;;;;;;;;;5060403;28;20096;-82
2021/08/30 08:43:01;;;;;;;32.08;13.43;;;;;;;;;;5068310;28;20035;-82
2021/08/30 08:45:27;;;;;;;27.58;13.60;;;;;;;;;;5074451;28;20460;-82
2021/08/30 08:47:53;;;;;;;27.48;12.50;;;;;;;;;;5065180;28;20078;-82
2021/08/30 08:50:26;;;;;;;24.92;11.82;;;;;;;;;;5060569;28;20107;-82
2021/08/30 08:52:51;;;;;;;22.92;11.23;;;;;;;;;;5063977;28;20471;-82
2021/08/30 08:55:16;;;;;;;34.58;13.65;;;;;;;;;;5074405;28;20012;-82
2021/08/30 08:57:43;;;;;;;25.85;11.48;;;;;;;;;;5074348;28;20023;-83
2021/08/30 09:00:09;;;;;;;32.83;12.63;;;;;;;;;;5074473;28;20128;-82
2021/08/30 09:02:35;;;;;;;26.80;12.13;;;;;;;;;;5075608;28;20468;-82
2021/08/30 09:05:01;;;;;;;28.20;13.13;;;;;;;;;;5064412;28;20036;-82
2021/08/30 09:07:32;;;;;;;23.77;11.40;;;;;;;;;;5074411;28;20594;-82
2021/08/30 09:09:59;;;;;;;30.92;12.07;;;;;;;;;;5040651;28;20388;-82
2021/08/30 09:12:24;;;;;;;26.88;11.40;;;;;;;;;;5066797;28;20503;-82
2021/08/30 09:14:49;;;;;;;28.08;12.73;;;;;;;;;;5074030;28;20009;-82
2021/08/30 09:17:15;;;;;;;27.27;12.25;;;;;;;;;;5074009;28;20078;-82
2021/08/30 09:19:40;;;;;;;28.50;11.43;;;;;;;;;;5075176;28;20021;-82
2021/08/30 09:22:06;;;;;;;25.50;12.52;;;;;;;;;;5074177;28;20040;-82
2021/08/30 09:24:32;;;;;;;26.83;11.57;;;;;;;;;;5075092;28;20089;-82
2021/08/30 09:27:05;;;;;;;24.98;12.15;;;;;;;;;;5073864;28;20471;-83
2021/08/30 09:29:32;;;;;;;32.75;12.50;;;;;;;;;;5073704;28;20101;-82
2021/08/30 09:32:02;;;;;;;31.23;13.15;;;;;;;;;;5062921;28;20055;-82
2021/08/30 09:34:38;;;;;;;26.23;13.02;;;;;;;;;;5073670;28;20533;-82
2021/08/30 09:37:12;;;;;;;24.73;11.35;;;;;;;;;;5073721;28;20017;-82
2021/08/30 09:39:43;;;;;;;30.52;12.30;;;;;;;;;;5071144;28;20047;-82
2021/08/30 09:42:10;;;;;;;31.48;12.27;;;;;;;;;;5058581;28;20027;-83
2021/08/30 09:44:35;;;;;;;25.67;12.70;;;;;;;;;;5061852;28;20025;-82
2021/08/30 09:47:07;;;;;;;31.63;12.30;;;;;;;;;;5055099;28;20028;-82
2021/08/30 09:49:33;;;;;;;23.40;12.00;;;;;;;;;;5065183;28;20380;-82
2021/08/30 09:51:58;;;;;;;25.23;12.13;;;;;;;;;;5066335;28;20029;-82
2021/08/30 09:54:24;;;;;;;22.48;10.73;;;;;;;;;;5074143;28;20027;-82
2021/08/30 09:56:49;;;;;;;22.67;11.00;;;;;;;;;;5061728;28;20017;-82
2021/08/30 09:59:16;;;;;;;23.95;12.25;;;;;;;;;;5069350;28;20028;-82
2021/08/30 10:01:41;;;;;;;23.33;10.55;;;;;;;;;;5073324;28;20103;-82
2021/08/30 10:04:07;;;;;;;28.35;11.77;;;;;;;;;;5064062;28;20437;-82
2021/08/30 10:06:37;;;;;;;24.90;11.18;;;;;;;;;;5055337;28;20021;-82
2021/08/30 10:09:04;;;;;;;21.45;10.70;;;;;;;;;;5047271;28;20087;-82
2021/08/30 10:11:29;;;;;;;20.25;10.23;;;;;;;;;;5071995;28;20013;-83
2021/08/30 10:13:55;;;;;;;32.70;10.82;;;;;;;;;;5074180;28;20069;-83
2021/08/30 10:16:21;;;;;;;17.45;9.00;;;;;;;;;;5074080;28;20040;-83
2021/08/30 10:18:46;;;;;;;20.60;9.88;;;;;;;;;;5066662;28;20532;-84
2021/08/30 10:21:14;;;;;;;24.20;10.98;;;;;;;;;;5067607;28;20136;-84
2021/08/30 10:23:39;;;;;;;18.75;9.90;;;;;;;;;;5065471;28;20023;-83
2021/08/30 10:26:05;;;;;;;25.00;10.93;;;;;;;;;;5072905;28;20020;-84
2021/08/30 10:28:35;;;;;;;20.40;9.85;;;;;;;;;;5071606;28;20012;-84
2021/08/30 10:31:00;;;;;;;24.65;12.13;;;;;;;;;;5055188;28;20029;-84
2021/08/30 10:33:34;;;;;;;18.52;10.85;;;;;;;;;;5054962;28;20074;-84
2021/08/30 10:36:09;;;;;;;23.88;9.75;;;;;;;;;;5063216;28;20017;-84
2021/08/30 10:38:35;;;;;;;23.70;10.57;;;;;;;;;;5056423;28;20025;-83
2021/08/30 10:41:00;;;;;;;21.33;10.68;;;;;;;;;;5056767;28;20025;-83
2021/08/30 10:43:29;;;;;;;20.17;10.00;;;;;;;;;;5068060;28;20020;-84
2021/08/30 10:45:58;;;;;;;20.33;10.20;;;;;;;;;;5065771;28;20017;-84
2021/08/30 10:48:33;;;;;;;17.83;9.63;;;;;;;;;;5066870;28;20464;-83
2021/08/30 10:50:59;;;;;;;19.27;9.75;;;;;;;;;;5067358;28;20064;-84
2021/08/30 10:53:25;;;;;;;26.73;9.52;;;;;;;;;;5055655;28;20057;-84
2021/08/30 10:55:55;;;;;;;21.38;10.18;;;;;;;;;;5060410;28;20558;-84
2021/08/30 10:58:21;;;;;;;19.73;10.65;;;;;;;;;;5063979;28;20428;-84
2021/08/30 11:00:49;;;;;;;19.15;9.43;;;;;;;;;;5071917;28;20023;-84
2021/08/30 11:03:44;;;;;;;20.90;10.30;;;;;;;;;;5063122;28;20021;-84
2021/08/30 11:06:14;;;;;;;18.15;9.40;;;;;;;;;;5039830;28;20036;-84
2021/08/30 11:08:40;;;;;;;20.90;9.25;;;;;;;;;;5058755;28;20037;-84
2021/08/30 11:11:15;;;;;;;19.83;8.93;;;;;;;;;;5067268;28;20384;-84
2021/08/30 11:13:41;;;;;;;21.67;9.85;;;;;;;;;;5060527;28;20550;-84
2021/08/30 11:16:20;;;;;;;27.52;10.98;;;;;;;;;;5071689;28;20052;-83
2021/08/30 11:18:51;;;;;;;16.80;8.48;;;;;;;;;;5056872;28;20107;-84
2021/08/30 11:21:16;;;;;;;18.50;8.97;;;;;;;;;;5052957;28;20021;-84
2021/08/30 11:23:41;;;;;;;18.98;9.20;;;;;;;;;;5057132;28;20089;-84
2021/08/30 11:26:06;;;;;;;18.77;9.25;;;;;;;;;;5065478;28;20032;-84
2021/08/30 11:28:32;;;;;;;19.58;9.35;;;;;;;;;;5062890;28;20032;-84
2021/08/30 11:30:57;;;;;;;20.88;9.60;;;;;;;;;;5066576;28;20032;-83
2021/08/30 11:33:23;;;;;;;18.55;9.10;;;;;;;;;;5063428;28;20021;-83
2021/08/30 11:35:48;;;;;;;18.30;8.90;;;;;;;;;;5094207;28;20137;-82
2021/08/30 11:38:13;;;;;;;18.73;8.73;;;;;;;;;;5059282;28;20013;-81
2021/08/30 11:40:38;;;;;;;20.70;9.90;;;;;;;;;;5071809;28;20027;-81
2021/08/30 11:43:10;;;;;;;21.38;9.00;;;;;;;;;;5066868;28;20021;-81
2021/08/30 11:45:35;;;;;;;23.70;9.57;;;;;;;;;;5076680;28;20013;-81
2021/08/30 11:48:01;;;;;;;23.23;9.48;;;;;;;;;;5071583;28;20094;-81
2021/08/30 11:50:27;;;;;;;20.40;8.95;;;;;;;;;;5062855;28;20025;-81
2021/08/30 11:52:53;;;;;;;17.13;9.13;;;;;;;;;;5060985;28;20043;-81
2021/08/30 11:55:19;;;;;;;19.08;9.23;;;;;;;;;;5055530;28;20028;-81
2021/08/30 11:57:47;;;;;;;17.40;8.65;;;;;;;;;;5057329;28;20017;-81
2021/08/30 12:00:13;;;;;;;18.98;9.27;;;;;;;;;;5066202;28;20538;-82
2021/08/30 12:02:38;;;;;;;23.27;9.63;;;;;;;;;;5075205;28;20020;-82
2021/08/30 12:05:05;;;;;;;17.45;8.20;;;;;;;;;;5074896;28;20133;-81
2021/08/30 12:07:37;;;;;;;18.55;10.20;;;;;;;;;;5075190;28;20506;-81
2021/08/30 12:10:02;;;;;;;;;;;;;;;;;;5076799;28;20017;-81
2021/08/30 12:12:29;;;;;;;20.45;8.52;;;;;;;;;;5076580;28;20037;-82
2021/08/30 12:15:14;;;;;;;25.45;9.23;;;;;;;;;;5071761;28;20040;-81
2021/08/30 12:17:44;;;;;;;17.25;9.25;;;;;;;;;;5057540;28;20024;-81
2021/08/30 12:20:17;;;;;;;20.08;8.30;;;;;;;;;;5056742;28;20021;-82
2021/08/30 12:22:47;;;;;;;18.85;8.60;;;;;;;;;;5059332;28;20121;-81
2021/08/30 12:25:22;;;;;;;15.75;8.27;;;;;;;;;;5074702;28;20494;-82
2021/08/30 12:27:48;;;;;;;20.38;8.63;;;;;;;;;;5071767;28;20024;-82
2021/08/30 12:30:27;;;;;;;18.63;9.63;;;;;;;;;;5076241;28;20103;-82
2021/08/30 12:32:54;;;;;;;20.23;9.85;;;;;;;;;;5074940;28;20025;-82
2021/08/30 12:35:22;;;;;;;15.95;8.07;;;;;;;;;;5065937;28;20020;-82
2021/08/30 12:37:47;;;;;;;17.13;8.18;;;;;;;;;;5074800;28;20070;-81
2021/08/30 12:40:14;;;;;;;15.77;7.38;;;;;;;;;;5074464;28;20020;-82
2021/08/30 12:42:39;;;;;;;21.25;8.45;;;;;;;;;;5074600;28;20020;-81
2021/08/30 12:45:05;;;;;;;16.88;8.05;;;;;;;;;;5074306;28;20406;-82
2021/08/30 12:47:30;;;;;;;12.98;7.13;;;;;;;;;;5074408;28;20480;-82
2021/08/30 12:49:55;;;;;;;14.13;6.97;;;;;;;;;;5074759;28;20387;-82
2021/08/30 12:52:20;;;;;;;17.52;6.95;;;;;;;;;;5075515;28;20021;-82
2021/08/30 12:54:46;;;;;;;14.70;7.10;;;;;;;;;;5063400;28;20044;-82
2021/08/30 12:57:11;;;;;;;15.25;7.47;;;;;;;;;;5074541;28;20107;-82
2021/08/30 12:59:36;;;;;;;14.32;7.15;;;;;;;;;;5074399;28;20460;-82
2021/08/30 13:02:01;;;;;;;13.90;6.63;;;;;;;;;;5075492;28;20040;-82
2021/08/30 13:04:26;;;;;;;15.05;6.65;;;;;;;;;;5071847;28;20024;-82
2021/08/30 13:06:52;;;;;;;14.23;7.07;;;;;;;;;;5058390;28;20035;-81
2021/08/30 13:09:17;;;;;;;17.75;6.80;;;;;;;;;;5063908;28;20075;-82
2021/08/30 13:11:42;;;;;;;12.02;5.80;;;;;;;;;;5062091;28;20088;-82
2021/08/30 13:14:07;;;;;;;10.60;7.03;;;;;;;;;;5054131;28;20476;-82
2021/08/30 13:16:32;;;;;;;14.80;6.47;;;;;;;;;;5059657;28;20009;-82
2021/08/30 13:18:57;;;;;;;15.50;7.07;;;;;;;;;;5064008;28;20025;-82
2021/08/30 13:21:23;;;;;;;14.10;8.07;;;;;;;;;;5065907;28;20056;-82
2021/08/30 13:23:48;;;;;;;14.55;6.93;;;;;;;;;;5056555;28;20025;-82
2021/08/30 13:26:13;;;;;;;16.85;7.20;;;;;;;;;;5055212;28;20037;-82
2021/08/30 13:28:39;;;;;;;18.23;7.28;;;;;;;;;;5065881;28;20028;-82
2021/08/30 13:31:05;;;;;;;16.92;7.75;;;;;;;;;;5056168;28;20392;-82
2021/08/30 13:33:30;;;;;;;15.70;7.53;;;;;;;;;;5058683;28;20021;-82
2021/08/30 13:35:56;;;;;;;18.83;8.00;;;;;;;;;;5057441;28;20358;-83
2021/08/30 13:38:21;;;;;;;17.05;8.05;;;;;;;;;;5054774;28;20021;-83
2021/08/30 13:40:46;;;;;;;18.83;7.25;;;;;;;;;;5054134;28;20024;-83
2021/08/30 13:43:11;;;;;;;17.15;7.97;;;;;;;;;;5068022;28;20114;-83
2021/08/30 13:45:36;;;;;;;18.55;7.70;;;;;;;;;;5073380;28;20036;-83
2021/08/30 13:48:02;;;;;;;17.92;7.45;;;;;;;;;;5074545;28;20115;-83
2021/08/30 13:50:27;;;;;;;18.55;7.38;;;;;;;;;;5069906;28;20017;-83
2021/08/30 13:52:53;;;;;;;21.30;7.85;;;;;;;;;;5063140;28;20476;-83
2021/08/30 13:55:19;;;;;;;20.90;7.90;;;;;;;;;;5074461;28;20031;-83
2021/08/30 13:57:44;;;;;;;17.83;7.07;;;;;;;;;;5069650;28;20111;-83
2021/08/30 14:00:10;;;;;;;17.50;7.40;;;;;;;;;;5054728;28;20423;-83
2021/08/30 14:02:35;;;;;;;18.52;7.18;;;;;;;;;;5070089;28;20388;-83
2021/08/30 14:05:01;;;;;;;17.27;8.30;;;;;;;;;;5073322;28;20020;-83
2021/08/30 14:07:27;;;;;;;13.63;7.38;;;;;;;;;;5060769;28;20063;-83
2021/08/30 14:09:52;;;;;;;18.05;8.02;;;;;;;;;;5072505;28;20425;-83
2021/08/30 14:12:17;;;;;;;19.08;7.72;;;;;;;;;;5073081;28;20023;-83
2021/08/30 14:14:42;;;;;;;15.27;7.30;;;;;;;;;;5073009;28;20020;-83
2021/08/30 14:17:07;;;;;;;14.25;7.07;;;;;;;;;;5073162;28;20392;-83
2021/08/30 14:19:33;;;;;;;12.80;7.57;;;;;;;;;;5072905;28;20099;-83
2021/08/30 14:21:59;;;;;;;17.75;7.63;;;;;;;;;;5066265;28;20111;-83
2021/08/30 14:24:24;;;;;;;14.77;7.82;;;;;;;;;;5058366;28;20032;-83